sensor_id;sensor_type;location;lat;lon;timestamp;temperature;humidity
72865;DHT22;61000;48.120;11.548;2022-12-10T00:02:03;1.70;99.90
72865;DHT22;61000;48.120;11.548;2022-12-10T00:04:30;1.70;99.90
72865;DHT22;61000;48.120;11.548;2022-12-10T00:06:57;1.70;99.90
72865;DHT22;61000;48.120;11.548;2022-12-10T00:09:25;1.60;99.90
72865;DHT22;61000;48.120;11.548;2022-12-10T00:11:52;1.60;99.90
72865;DHT22;61000;48.120;11.548;2022-12-10T00:14:19;1.60;99.90
72865;DHT22;61000;48.120;11.548;2022-12-10T00:16:45;1.60;99.90
72865;DHT22;61000;48.120;11.548;2022-12-10T00:19:12;1.60;99.90
72865;DHT22;61000;48.120;11.548;2022-12-10T00:21:39;1.60;99.90
72865;DHT22;61000;48.120;11.548;2022-12-10T00:24:06;1.60;99.90
72865;DHT22;61000;48.120;11.548;2022-12-10T00:26:36;1.60;99.90
72865;DHT22;61000;48.120;11.548;2022-12-10T00:29:05;1.60;99.90
72865;DHT22;61000;48.120;11.548;2022-12-10T00:31:35;1.50;99.90
72865;DHT22;61000;48.120;11.548;2022-12-10T00:34:06;1.50;99.90
72865;DHT22;61000;48.120;11.548;2022-12-10T00:36:36;1.50;99.90
72865;DHT22;61000;48.120;11.548;2022-12-10T00:39:03;1.50;99.90
72865;DHT22;61000;48.120;11.548;2022-12-10T00:41:31;1.50;99.90
72865;DHT22;61000;48.120;11.548;2022-12-10T00:43:59;1.60;99.90
72865;DHT22;61000;48.120;11.548;2022-12-10T00:46:26;1.60;99.90
72865;DHT22;61000;48.120;11.548;2022-12-10T00:48:53;1.60;99.90
72865;DHT22;61000;48.120;11.548;2022-12-10T00:51:21;1.60;99.90
72865;DHT22;61000;48.120;11.548;2022-12-10T00:53:49;1.60;99.90
72865;DHT22;61000;48.120;11.548;2022-12-10T00:56:18;1.60;99.90
72865;DHT22;61000;48.120;11.548;2022-12-10T00:58:47;1.60;99.90
72865;DHT22;61000;48.120;11.548;2022-12-10T01:01:18;1.50;99.90
72865;DHT22;61000;48.120;11.548;2022-12-10T01:03:46;1.50;99.90
72865;DHT22;61000;48.120;11.548;2022-12-10T01:06:17;1.60;99.90
72865;DHT22;61000;48.120;11.548;2022-12-10T01:08:44;1.50;99.90
72865;DHT22;61000;48.120;11.548;2022-12-10T01:11:13;1.60;99.90
72865;DHT22;61000;48.120;11.548;2022-12-10T01:13:41;1.60;99.90
72865;DHT22;61000;48.120;11.548;2022-12-10T01:16:10;1.60;99.90
72865;DHT22;61000;48.120;11.548;2022-12-10T01:18:39;1.50;99.90
72865;DHT22;61000;48.120;11.548;2022-12-10T01:21:07;1.50;99.90
72865;DHT22;61000;48.120;11.548;2022-12-10T01:23:36;1.50;99.90
72865;DHT22;61000;48.120;11.548;2022-12-10T01:26:05;1.50;99.90
72865;DHT22;61000;48.120;11.548;2022-12-10T01:28:34;1.40;99.90
72865;DHT22;61000;48.120;11.548;2022-12-10T01:31:03;1.40;99.90
72865;DHT22;61000;48.120;11.548;2022-12-10T01:33:31;1.40;99.90
72865;DHT22;61000;48.120;11.548;2022-12-10T01:36:03;1.30;99.90
72865;DHT22;61000;48.120;11.548;2022-12-10T01:38:30;1.30;99.90
72865;DHT22;61000;48.120;11.548;2022-12-10T01:40:57;1.30;99.90
72865;DHT22;61000;48.120;11.548;2022-12-10T01:43:24;1.30;99.90
72865;DHT22;61000;48.120;11.548;2022-12-10T01:45:51;1.30;99.90
72865;DHT22;61000;48.120;11.548;2022-12-10T01:48:18;1.30;99.90
72865;DHT22;61000;48.120;11.548;2022-12-10T01:50:45;1.30;99.90
72865;DHT22;61000;48.120;11.548;2022-12-10T01:53:14;1.30;99.90
72865;DHT22;61000;48.120;11.548;2022-12-10T01:55:45;1.30;99.90
72865;DHT22;61000;48.120;11.548;2022-12-10T01:58:15;1.20;99.90
72865;DHT22;61000;48.120;11.548;2022-12-10T02:01:02;1.20;99.90
72865;DHT22;61000;48.120;11.548;2022-12-10T02:03:39;1.20;99.90
72865;DHT22;61000;48.120;11.548;2022-12-10T02:06:16;1.20;99.90
72865;DHT22;61000;48.120;11.548;2022-12-10T02:08:52;1.20;99.90
72865;DHT22;61000;48.120;11.548;2022-12-10T02:11:27;1.20;99.90
72865;DHT22;61000;48.120;11.548;2022-12-10T02:14:00;1.20;99.90
72865;DHT22;61000;48.120;11.548;2022-12-10T02:16:33;1.20;99.90
72865;DHT22;61000;48.120;11.548;2022-12-10T02:19:07;1.20;99.90
72865;DHT22;61000;48.120;11.548;2022-12-10T02:21:38;1.20;99.90
72865;DHT22;61000;48.120;11.548;2022-12-10T02:24:14;1.20;99.90
72865;DHT22;61000;48.120;11.548;2022-12-10T02:26:45;1.10;99.90
72865;DHT22;61000;48.120;11.548;2022-12-10T02:29:18;1.10;99.90
72865;DHT22;61000;48.120;11.548;2022-12-10T02:32:01;1.10;99.90
72865;DHT22;61000;48.120;11.548;2022-12-10T02:34:34;1.10;99.90
72865;DHT22;61000;48.120;11.548;2022-12-10T02:37:06;1.10;99.90
72865;DHT22;61000;48.120;11.548;2022-12-10T02:39:39;1.20;99.90
72865;DHT22;61000;48.120;11.548;2022-12-10T02:42:09;1.10;99.90
72865;DHT22;61000;48.120;11.548;2022-12-10T02:44:40;1.10;99.90
72865;DHT22;61000;48.120;11.548;2022-12-10T02:47:09;1.10;99.90
72865;DHT22;61000;48.120;11.548;2022-12-10T02:49:41;1.10;99.90
72865;DHT22;61000;48.120;11.548;2022-12-10T02:52:13;1.00;99.90
72865;DHT22;61000;48.120;11.548;2022-12-10T02:54:44;1.00;99.90
72865;DHT22;61000;48.120;11.548;2022-12-10T02:57:30;1.10;99.90
72865;DHT22;61000;48.120;11.548;2022-12-10T03:00:12;1.00;99.90
72865;DHT22;61000;48.120;11.548;2022-12-10T03:03:00;1.00;99.90
72865;DHT22;61000;48.120;11.548;2022-12-10T03:05:35;1.10;99.90
72865;DHT22;61000;48.120;11.548;2022-12-10T03:08:09;1.10;99.90
72865;DHT22;61000;48.120;11.548;2022-12-10T03:10:44;1.10;99.90
72865;DHT22;61000;48.120;11.548;2022-12-10T03:13:15;1.10;99.90
72865;DHT22;61000;48.120;11.548;2022-12-10T03:15:44;1.10;99.90
72865;DHT22;61000;48.120;11.548;2022-12-10T03:18:12;1.10;99.90
72865;DHT22;61000;48.120;11.548;2022-12-10T03:20:44;1.10;99.90
72865;DHT22;61000;48.120;11.548;2022-12-10T03:23:16;1.10;99.90
72865;DHT22;61000;48.120;11.548;2022-12-10T03:25:43;1.10;99.90
72865;DHT22;61000;48.120;11.548;2022-12-10T03:28:11;0.90;99.90
72865;DHT22;61000;48.120;11.548;2022-12-10T03:30:39;1.10;99.90
72865;DHT22;61000;48.120;11.548;2022-12-10T03:33:08;1.10;99.90
72865;DHT22;61000;48.120;11.548;2022-12-10T03:35:35;1.00;99.90
72865;DHT22;61000;48.120;11.548;2022-12-10T03:38:03;1.00;99.90
72865;DHT22;61000;48.120;11.548;2022-12-10T03:40:31;1.00;99.90
72865;DHT22;61000;48.120;11.548;2022-12-10T03:42:58;1.00;99.90
72865;DHT22;61000;48.120;11.548;2022-12-10T03:45:25;1.00;99.90
72865;DHT22;61000;48.120;11.548;2022-12-10T03:47:51;1.00;99.90
72865;DHT22;61000;48.120;11.548;2022-12-10T03:50:20;1.00;99.90
72865;DHT22;61000;48.120;11.548;2022-12-10T03:52:46;1.00;99.90
72865;DHT22;61000;48.120;11.548;2022-12-10T03:55:13;1.10;99.90
72865;DHT22;61000;48.120;11.548;2022-12-10T03:57:40;1.10;99.90
72865;DHT22;61000;48.120;11.548;2022-12-10T04:00:08;1.10;99.90
72865;DHT22;61000;48.120;11.548;2022-12-10T04:02:38;1.10;99.90
72865;DHT22;61000;48.120;11.548;2022-12-10T04:05:06;1.10;99.90
72865;DHT22;61000;48.120;11.548;2022-12-10T04:07:34;1.10;99.90
72865;DHT22;61000;48.120;11.548;2022-12-10T04:10:02;1.10;99.90
72865;DHT22;61000;48.120;11.548;2022-12-10T04:12:29;1.10;99.90
72865;DHT22;61000;48.120;11.548;2022-12-10T04:14:56;1.10;99.90
72865;DHT22;61000;48.120;11.548;2022-12-10T04:17:40;1.10;99.90
72865;DHT22;61000;48.120;11.548;2022-12-10T04:20:07;1.10;99.90
72865;DHT22;61000;48.120;11.548;2022-12-10T04:22:56;1.10;99.90
72865;DHT22;61000;48.120;11.548;2022-12-10T04:25:41;1.10;99.90
72865;DHT22;61000;48.120;11.548;2022-12-10T04:28:25;1.10;99.90
72865;DHT22;61000;48.120;11.548;2022-12-10T04:30:52;1.10;99.90
72865;DHT22;61000;48.120;11.548;2022-12-10T04:33:19;1.10;99.90
72865;DHT22;61000;48.120;11.548;2022-12-10T04:35:46;1.10;99.90
72865;DHT22;61000;48.120;11.548;2022-12-10T04:38:14;1.00;99.90
72865;DHT22;61000;48.120;11.548;2022-12-10T04:40:41;1.00;99.90
72865;DHT22;61000;48.120;11.548;2022-12-10T04:43:08;1.00;99.90
72865;DHT22;61000;48.120;11.548;2022-12-10T04:45:35;0.90;99.90
72865;DHT22;61000;48.120;11.548;2022-12-10T04:48:02;0.70;99.90
72865;DHT22;61000;48.120;11.548;2022-12-10T04:50:29;1.00;99.90
72865;DHT22;61000;48.120;11.548;2022-12-10T04:52:56;1.00;99.90
72865;DHT22;61000;48.120;11.548;2022-12-10T04:55:24;1.00;99.90
72865;DHT22;61000;48.120;11.548;2022-12-10T04:57:51;1.00;99.90
72865;DHT22;61000;48.120;11.548;2022-12-10T05:00:18;0.90;99.90
72865;DHT22;61000;48.120;11.548;2022-12-10T05:02:48;0.90;99.90
72865;DHT22;61000;48.120;11.548;2022-12-10T05:05:16;1.00;99.90
72865;DHT22;61000;48.120;11.548;2022-12-10T05:07:42;1.00;99.90
72865;DHT22;61000;48.120;11.548;2022-12-10T05:10:09;1.00;99.90
72865;DHT22;61000;48.120;11.548;2022-12-10T05:12:37;1.10;99.90
72865;DHT22;61000;48.120;11.548;2022-12-10T05:15:05;1.10;99.90
72865;DHT22;61000;48.120;11.548;2022-12-10T05:17:33;1.10;99.90
72865;DHT22;61000;48.120;11.548;2022-12-10T05:20:01;1.10;99.90
72865;DHT22;61000;48.120;11.548;2022-12-10T05:22:28;1.10;99.90
72865;DHT22;61000;48.120;11.548;2022-12-10T05:25:12;1.10;99.90
72865;DHT22;61000;48.120;11.548;2022-12-10T05:27:40;0.90;99.90
72865;DHT22;61000;48.120;11.548;2022-12-10T05:30:08;0.90;99.90
72865;DHT22;61000;48.120;11.548;2022-12-10T05:32:36;0.90;99.90
72865;DHT22;61000;48.120;11.548;2022-12-10T05:35:03;0.90;99.90
72865;DHT22;61000;48.120;11.548;2022-12-10T05:37:30;1.00;99.90
72865;DHT22;61000;48.120;11.548;2022-12-10T05:39:57;1.00;99.90
72865;DHT22;61000;48.120;11.548;2022-12-10T05:42:24;1.00;99.90
72865;DHT22;61000;48.120;11.548;2022-12-10T05:44:52;1.00;99.90
72865;DHT22;61000;48.120;11.548;2022-12-10T05:47:19;1.00;99.90
72865;DHT22;61000;48.120;11.548;2022-12-10T05:49:46;1.00;99.90
72865;DHT22;61000;48.120;11.548;2022-12-10T05:52:13;1.00;99.90
72865;DHT22;61000;48.120;11.548;2022-12-10T05:54:40;1.00;99.90
72865;DHT22;61000;48.120;11.548;2022-12-10T05:57:07;0.90;99.90
72865;DHT22;61000;48.120;11.548;2022-12-10T05:59:34;0.90;99.90
72865;DHT22;61000;48.120;11.548;2022-12-10T06:02:02;1.00;99.90
72865;DHT22;61000;48.120;11.548;2022-12-10T06:04:29;1.00;99.90
72865;DHT22;61000;48.120;11.548;2022-12-10T06:06:55;1.10;99.90
72865;DHT22;61000;48.120;11.548;2022-12-10T06:09:22;1.10;99.90
72865;DHT22;61000;48.120;11.548;2022-12-10T06:11:49;1.10;99.90
72865;DHT22;61000;48.120;11.548;2022-12-10T06:14:16;1.10;99.90
72865;DHT22;61000;48.120;11.548;2022-12-10T06:16:43;1.10;99.90
72865;DHT22;61000;48.120;11.548;2022-12-10T06:19:11;1.10;99.90
72865;DHT22;61000;48.120;11.548;2022-12-10T06:21:39;1.00;99.90
72865;DHT22;61000;48.120;11.548;2022-12-10T06:24:06;0.90;99.90
72865;DHT22;61000;48.120;11.548;2022-12-10T06:26:33;0.90;99.90
72865;DHT22;61000;48.120;11.548;2022-12-10T06:29:00;0.60;99.90
72865;DHT22;61000;48.120;11.548;2022-12-10T06:31:27;0.90;99.90
72865;DHT22;61000;48.120;11.548;2022-12-10T06:33:53;0.80;99.90
72865;DHT22;61000;48.120;11.548;2022-12-10T06:36:22;0.80;99.90
72865;DHT22;61000;48.120;11.548;2022-12-10T06:38:49;0.80;99.90
72865;DHT22;61000;48.120;11.548;2022-12-10T06:41:17;0.80;99.90
72865;DHT22;61000;48.120;11.548;2022-12-10T06:43:45;0.80;99.90
72865;DHT22;61000;48.120;11.548;2022-12-10T06:46:15;0.80;99.90
72865;DHT22;61000;48.120;11.548;2022-12-10T06:48:42;0.80;99.90
72865;DHT22;61000;48.120;11.548;2022-12-10T06:51:09;0.70;99.90
72865;DHT22;61000;48.120;11.548;2022-12-10T06:53:40;0.70;99.90
72865;DHT22;61000;48.120;11.548;2022-12-10T06:56:11;0.80;99.90
72865;DHT22;61000;48.120;11.548;2022-12-10T06:58:38;0.80;99.90
72865;DHT22;61000;48.120;11.548;2022-12-10T07:01:07;0.90;99.90
72865;DHT22;61000;48.120;11.548;2022-12-10T07:03:34;0.80;99.90
72865;DHT22;61000;48.120;11.548;2022-12-10T07:06:02;0.90;99.90
72865;DHT22;61000;48.120;11.548;2022-12-10T07:08:30;0.90;99.90
72865;DHT22;61000;48.120;11.548;2022-12-10T07:10:58;0.90;99.90
72865;DHT22;61000;48.120;11.548;2022-12-10T07:13:25;0.90;99.90
72865;DHT22;61000;48.120;11.548;2022-12-10T07:15:51;0.90;99.90
72865;DHT22;61000;48.120;11.548;2022-12-10T07:18:18;1.00;99.90
72865;DHT22;61000;48.120;11.548;2022-12-10T07:20:46;1.00;99.90
72865;DHT22;61000;48.120;11.548;2022-12-10T07:23:14;1.00;99.90
72865;DHT22;61000;48.120;11.548;2022-12-10T07:25:40;1.00;99.90
72865;DHT22;61000;48.120;11.548;2022-12-10T07:28:09;1.00;99.90
72865;DHT22;61000;48.120;11.548;2022-12-10T07:30:35;1.00;99.90
72865;DHT22;61000;48.120;11.548;2022-12-10T07:33:02;1.00;99.90
72865;DHT22;61000;48.120;11.548;2022-12-10T07:35:29;1.00;99.90
72865;DHT22;61000;48.120;11.548;2022-12-10T07:37:56;1.00;99.90
72865;DHT22;61000;48.120;11.548;2022-12-10T07:40:24;1.10;99.90
72865;DHT22;61000;48.120;11.548;2022-12-10T07:42:50;1.00;99.90
72865;DHT22;61000;48.120;11.548;2022-12-10T07:45:19;1.00;99.90
72865;DHT22;61000;48.120;11.548;2022-12-10T07:47:46;0.90;99.90
72865;DHT22;61000;48.120;11.548;2022-12-10T07:50:12;0.90;99.90
72865;DHT22;61000;48.120;11.548;2022-12-10T07:52:39;0.90;99.90
72865;DHT22;61000;48.120;11.548;2022-12-10T07:55:07;1.00;99.90
72865;DHT22;61000;48.120;11.548;2022-12-10T07:57:33;1.00;99.90
72865;DHT22;61000;48.120;11.548;2022-12-10T08:00:00;1.10;99.90
72865;DHT22;61000;48.120;11.548;2022-12-10T08:02:39;1.00;99.90
72865;DHT22;61000;48.120;11.548;2022-12-10T08:05:06;1.00;99.90
72865;DHT22;61000;48.120;11.548;2022-12-10T08:07:33;1.10;99.90
72865;DHT22;61000;48.120;11.548;2022-12-10T08:10:00;1.10;99.90
72865;DHT22;61000;48.120;11.548;2022-12-10T08:12:27;1.10;99.90
72865;DHT22;61000;48.120;11.548;2022-12-10T08:14:54;1.10;99.90
72865;DHT22;61000;48.120;11.548;2022-12-10T08:17:20;1.00;99.90
72865;DHT22;61000;48.120;11.548;2022-12-10T08:19:49;1.00;99.90
72865;DHT22;61000;48.120;11.548;2022-12-10T08:22:16;1.00;99.90
72865;DHT22;61000;48.120;11.548;2022-12-10T08:24:42;0.90;99.90
72865;DHT22;61000;48.120;11.548;2022-12-10T08:27:09;1.00;99.90
72865;DHT22;61000;48.120;11.548;2022-12-10T08:29:36;1.00;99.90
72865;DHT22;61000;48.120;11.548;2022-12-10T08:32:03;1.00;99.90
72865;DHT22;61000;48.120;11.548;2022-12-10T08:34:30;1.00;99.90
72865;DHT22;61000;48.120;11.548;2022-12-10T08:36:58;0.90;99.90
72865;DHT22;61000;48.120;11.548;2022-12-10T08:39:25;0.90;99.90
72865;DHT22;61000;48.120;11.548;2022-12-10T08:41:52;1.00;99.90
72865;DHT22;61000;48.120;11.548;2022-12-10T08:44:19;1.00;99.90
72865;DHT22;61000;48.120;11.548;2022-12-10T08:46:46;1.10;99.90
72865;DHT22;61000;48.120;11.548;2022-12-10T08:49:13;1.00;99.90
72865;DHT22;61000;48.120;11.548;2022-12-10T08:51:41;1.10;99.90
72865;DHT22;61000;48.120;11.548;2022-12-10T08:54:09;1.10;99.90
72865;DHT22;61000;48.120;11.548;2022-12-10T08:56:36;1.10;99.90
72865;DHT22;61000;48.120;11.548;2022-12-10T08:59:05;1.10;99.90
72865;DHT22;61000;48.120;11.548;2022-12-10T09:01:32;1.00;99.90
72865;DHT22;61000;48.120;11.548;2022-12-10T09:03:58;1.00;99.90
72865;DHT22;61000;48.120;11.548;2022-12-10T09:06:26;1.10;99.90
72865;DHT22;61000;48.120;11.548;2022-12-10T09:08:53;1.10;99.90
72865;DHT22;61000;48.120;11.548;2022-12-10T09:11:24;1.10;99.90
72865;DHT22;61000;48.120;11.548;2022-12-10T09:13:51;1.10;99.90
72865;DHT22;61000;48.120;11.548;2022-12-10T09:16:19;1.10;99.90
72865;DHT22;61000;48.120;11.548;2022-12-10T09:18:45;1.10;99.90
72865;DHT22;61000;48.120;11.548;2022-12-10T09:21:15;1.10;99.90
72865;DHT22;61000;48.120;11.548;2022-12-10T09:23:43;1.10;99.90
72865;DHT22;61000;48.120;11.548;2022-12-10T09:26:12;1.10;99.90
72865;DHT22;61000;48.120;11.548;2022-12-10T09:28:41;1.10;99.90
72865;DHT22;61000;48.120;11.548;2022-12-10T09:31:09;1.00;99.90
72865;DHT22;61000;48.120;11.548;2022-12-10T09:33:37;1.10;99.90
72865;DHT22;61000;48.120;11.548;2022-12-10T09:36:05;1.10;99.90
72865;DHT22;61000;48.120;11.548;2022-12-10T09:38:33;1.10;99.90
72865;DHT22;61000;48.120;11.548;2022-12-10T09:41:01;1.10;99.90
72865;DHT22;61000;48.120;11.548;2022-12-10T09:43:43;1.20;99.90
72865;DHT22;61000;48.120;11.548;2022-12-10T09:46:18;1.10;99.90
72865;DHT22;61000;48.120;11.548;2022-12-10T09:48:57;1.10;99.90
72865;DHT22;61000;48.120;11.548;2022-12-10T09:51:28;1.10;99.90
72865;DHT22;61000;48.120;11.548;2022-12-10T09:53:58;1.20;99.90
72865;DHT22;61000;48.120;11.548;2022-12-10T09:56:28;1.20;99.90
72865;DHT22;61000;48.120;11.548;2022-12-10T09:59:00;1.10;99.90
72865;DHT22;61000;48.120;11.548;2022-12-10T10:01:29;1.20;99.90
72865;DHT22;61000;48.120;11.548;2022-12-10T10:03:56;1.20;99.90
72865;DHT22;61000;48.120;11.548;2022-12-10T10:06:24;1.10;99.90
72865;DHT22;61000;48.120;11.548;2022-12-10T10:08:54;1.20;99.90
72865;DHT22;61000;48.120;11.548;2022-12-10T10:11:26;1.20;99.90
72865;DHT22;61000;48.120;11.548;2022-12-10T10:13:58;1.20;99.90
72865;DHT22;61000;48.120;11.548;2022-12-10T10:16:29;1.20;99.90
72865;DHT22;61000;48.120;11.548;2022-12-10T10:18:59;1.20;99.90
72865;DHT22;61000;48.120;11.548;2022-12-10T10:21:29;1.20;99.90
72865;DHT22;61000;48.120;11.548;2022-12-10T10:23:58;1.20;99.90
72865;DHT22;61000;48.120;11.548;2022-12-10T10:26:26;1.20;99.90
72865;DHT22;61000;48.120;11.548;2022-12-10T10:28:56;1.10;99.90
72865;DHT22;61000;48.120;11.548;2022-12-10T10:31:27;1.10;99.90
72865;DHT22;61000;48.120;11.548;2022-12-10T10:33:55;1.10;99.90
72865;DHT22;61000;48.120;11.548;2022-12-10T10:36:25;1.10;99.90
72865;DHT22;61000;48.120;11.548;2022-12-10T10:38:52;1.10;99.90
72865;DHT22;61000;48.120;11.548;2022-12-10T10:41:19;1.10;99.90
72865;DHT22;61000;48.120;11.548;2022-12-10T10:43:46;1.10;99.90
72865;DHT22;61000;48.120;11.548;2022-12-10T10:46:17;1.10;99.90
72865;DHT22;61000;48.120;11.548;2022-12-10T10:48:48;1.10;99.90
72865;DHT22;61000;48.120;11.548;2022-12-10T10:51:19;1.10;99.90
72865;DHT22;61000;48.120;11.548;2022-12-10T10:53:49;1.10;99.90
72865;DHT22;61000;48.120;11.548;2022-12-10T10:56:19;1.10;99.90
72865;DHT22;61000;48.120;11.548;2022-12-10T10:58:54;2.40;99.90
72865;DHT22;61000;48.120;11.548;2022-12-10T11:01:21;1.00;99.90
72865;DHT22;61000;48.120;11.548;2022-12-10T11:03:55;1.00;99.90
72865;DHT22;61000;48.120;11.548;2022-12-10T11:06:22;1.00;99.90
72865;DHT22;61000;48.120;11.548;2022-12-10T11:08:51;1.00;99.90
72865;DHT22;61000;48.120;11.548;2022-12-10T11:11:22;1.00;99.90
72865;DHT22;61000;48.120;11.548;2022-12-10T11:13:51;1.10;99.90
72865;DHT22;61000;48.120;11.548;2022-12-10T11:16:20;1.10;99.90
72865;DHT22;61000;48.120;11.548;2022-12-10T11:18:56;1.00;99.90
72865;DHT22;61000;48.120;11.548;2022-12-10T11:21:28;1.00;99.90
72865;DHT22;61000;48.120;11.548;2022-12-10T11:23:56;1.00;99.90
72865;DHT22;61000;48.120;11.548;2022-12-10T11:26:43;1.00;99.90
72865;DHT22;61000;48.120;11.548;2022-12-10T11:29:24;1.00;99.90
72865;DHT22;61000;48.120;11.548;2022-12-10T11:32:02;1.00;99.90
72865;DHT22;61000;48.120;11.548;2022-12-10T11:34:40;1.00;99.90
72865;DHT22;61000;48.120;11.548;2022-12-10T11:37:18;1.00;99.90
72865;DHT22;61000;48.120;11.548;2022-12-10T11:39:59;1.00;99.90
72865;DHT22;61000;48.120;11.548;2022-12-10T11:42:35;1.10;99.90
72865;DHT22;61000;48.120;11.548;2022-12-10T11:45:08;1.30;99.90
72865;DHT22;61000;48.120;11.548;2022-12-10T11:47:46;1.10;99.90
72865;DHT22;61000;48.120;11.548;2022-12-10T11:50:26;1.10;99.90
72865;DHT22;61000;48.120;11.548;2022-12-10T11:53:13;1.10;99.90
72865;DHT22;61000;48.120;11.548;2022-12-10T11:55:49;1.10;99.90
72865;DHT22;61000;48.120;11.548;2022-12-10T11:58:39;1.10;99.90
72865;DHT22;61000;48.120;11.548;2022-12-10T12:01:19;1.00;99.90
72865;DHT22;61000;48.120;11.548;2022-12-10T12:03:59;1.10;99.90
72865;DHT22;61000;48.120;11.548;2022-12-10T12:06:40;1.10;99.90
72865;DHT22;61000;48.120;11.548;2022-12-10T12:09:15;1.10;99.90
72865;DHT22;61000;48.120;11.548;2022-12-10T12:11:55;1.10;99.90
72865;DHT22;61000;48.120;11.548;2022-12-10T12:14:30;1.10;99.90
72865;DHT22;61000;48.120;11.548;2022-12-10T12:17:03;1.10;99.90
72865;DHT22;61000;48.120;11.548;2022-12-10T12:19:35;1.10;99.90
72865;DHT22;61000;48.120;11.548;2022-12-10T12:22:13;1.10;99.90
72865;DHT22;61000;48.120;11.548;2022-12-10T12:24:42;1.10;99.90
72865;DHT22;61000;48.120;11.548;2022-12-10T12:27:19;0.70;99.90
72865;DHT22;61000;48.120;11.548;2022-12-10T12:29:56;1.00;99.90
72865;DHT22;61000;48.120;11.548;2022-12-10T12:32:27;0.90;99.90
72865;DHT22;61000;48.120;11.548;2022-12-10T12:34:59;0.90;99.90
72865;DHT22;61000;48.120;11.548;2022-12-10T12:37:34;0.90;99.90
72865;DHT22;61000;48.120;11.548;2022-12-10T12:40:04;0.90;99.90
72865;DHT22;61000;48.120;11.548;2022-12-10T12:42:44;0.90;99.90
72865;DHT22;61000;48.120;11.548;2022-12-10T12:45:15;0.90;99.90
72865;DHT22;61000;48.120;11.548;2022-12-10T12:47:47;0.90;99.90
72865;DHT22;61000;48.120;11.548;2022-12-10T12:50:24;0.90;99.90
72865;DHT22;61000;48.120;11.548;2022-12-10T12:52:56;0.90;99.90
72865;DHT22;61000;48.120;11.548;2022-12-10T12:55:29;0.80;99.90
72865;DHT22;61000;48.120;11.548;2022-12-10T12:58:15;0.80;99.90
72865;DHT22;61000;48.120;11.548;2022-12-10T13:00:50;0.80;99.90
72865;DHT22;61000;48.120;11.548;2022-12-10T13:03:25;0.90;99.90
72865;DHT22;61000;48.120;11.548;2022-12-10T13:05:54;0.90;99.90
72865;DHT22;61000;48.120;11.548;2022-12-10T13:08:29;0.80;99.90
72865;DHT22;61000;48.120;11.548;2022-12-10T13:11:15;0.90;99.90
72865;DHT22;61000;48.120;11.548;2022-12-10T13:14:13;0.90;99.90
72865;DHT22;61000;48.120;11.548;2022-12-10T13:16:58;0.90;99.90
72865;DHT22;61000;48.120;11.548;2022-12-10T13:19:28;0.90;99.90
72865;DHT22;61000;48.120;11.548;2022-12-10T13:22:05;0.80;99.90
72865;DHT22;61000;48.120;11.548;2022-12-10T13:27:41;0.80;99.90
72865;DHT22;61000;48.120;11.548;2022-12-10T13:30:34;0.80;99.90
72865;DHT22;61000;48.120;11.548;2022-12-10T13:33:14;0.80;99.90
72865;DHT22;61000;48.120;11.548;2022-12-10T13:35:49;0.70;99.90
72865;DHT22;61000;48.120;11.548;2022-12-10T13:38:21;0.70;99.90
72865;DHT22;61000;48.120;11.548;2022-12-10T13:40:59;0.70;99.90
72865;DHT22;61000;48.120;11.548;2022-12-10T13:43:52;0.70;99.90
72865;DHT22;61000;48.120;11.548;2022-12-10T13:46:55;0.70;99.90
72865;DHT22;61000;48.120;11.548;2022-12-10T13:49:24;0.70;99.90
72865;DHT22;61000;48.120;11.548;2022-12-10T13:52:00;0.70;99.90
72865;DHT22;61000;48.120;11.548;2022-12-10T13:57:49;0.70;99.90
72865;DHT22;61000;48.120;11.548;2022-12-10T14:00:20;0.70;99.90
72865;DHT22;61000;48.120;11.548;2022-12-10T14:03:21;0.70;99.90
72865;DHT22;61000;48.120;11.548;2022-12-10T14:06:13;0.70;99.90
72865;DHT22;61000;48.120;11.548;2022-12-10T14:08:43;0.80;99.90
72865;DHT22;61000;48.120;11.548;2022-12-10T14:11:17;0.70;99.90
72865;DHT22;61000;48.120;11.548;2022-12-10T14:13:49;0.70;99.90
72865;DHT22;61000;48.120;11.548;2022-12-10T14:16:21;0.70;99.90
72865;DHT22;61000;48.120;11.548;2022-12-10T14:18:53;0.60;99.90
72865;DHT22;61000;48.120;11.548;2022-12-10T14:21:22;0.60;99.90
72865;DHT22;61000;48.120;11.548;2022-12-10T14:23:52;0.60;99.90
72865;DHT22;61000;48.120;11.548;2022-12-10T14:26:21;0.60;99.90
72865;DHT22;61000;48.120;11.548;2022-12-10T14:28:55;0.70;99.90
72865;DHT22;61000;48.120;11.548;2022-12-10T14:31:27;0.60;99.90
72865;DHT22;61000;48.120;11.548;2022-12-10T14:33:58;0.60;99.90
72865;DHT22;61000;48.120;11.548;2022-12-10T14:36:28;0.60;99.90
72865;DHT22;61000;48.120;11.548;2022-12-10T14:38:56;0.60;99.90
72865;DHT22;61000;48.120;11.548;2022-12-10T14:41:24;0.60;99.90
72865;DHT22;61000;48.120;11.548;2022-12-10T14:43:52;0.60;99.90
72865;DHT22;61000;48.120;11.548;2022-12-10T14:46:24;0.60;99.90
72865;DHT22;61000;48.120;11.548;2022-12-10T14:48:52;0.60;99.90
72865;DHT22;61000;48.120;11.548;2022-12-10T14:51:22;0.60;99.90
72865;DHT22;61000;48.120;11.548;2022-12-10T14:53:52;0.60;99.90
72865;DHT22;61000;48.120;11.548;2022-12-10T14:56:26;0.60;99.90
72865;DHT22;61000;48.120;11.548;2022-12-10T14:58:57;0.50;99.90
72865;DHT22;61000;48.120;11.548;2022-12-10T15:01:31;0.50;99.90
72865;DHT22;61000;48.120;11.548;2022-12-10T15:04:01;0.50;99.90
72865;DHT22;61000;48.120;11.548;2022-12-10T15:06:31;0.50;99.90
72865;DHT22;61000;48.120;11.548;2022-12-10T15:08:59;0.50;99.90
72865;DHT22;61000;48.120;11.548;2022-12-10T15:11:27;0.50;99.90
72865;DHT22;61000;48.120;11.548;2022-12-10T15:13:57;0.50;99.90
72865;DHT22;61000;48.120;11.548;2022-12-10T15:16:37;0.50;99.90
72865;DHT22;61000;48.120;11.548;2022-12-10T15:19:09;0.50;99.90
72865;DHT22;61000;48.120;11.548;2022-12-10T15:21:41;0.50;99.90
72865;DHT22;61000;48.120;11.548;2022-12-10T15:24:15;0.50;99.90
72865;DHT22;61000;48.120;11.548;2022-12-10T15:26:43;0.50;99.90
72865;DHT22;61000;48.120;11.548;2022-12-10T15:29:33;0.50;99.90
72865;DHT22;61000;48.120;11.548;2022-12-10T15:32:10;0.50;99.90
72865;DHT22;61000;48.120;11.548;2022-12-10T15:34:42;0.50;99.90
72865;DHT22;61000;48.120;11.548;2022-12-10T15:37:21;0.50;99.90
72865;DHT22;61000;48.120;11.548;2022-12-10T15:39:52;0.50;99.90
72865;DHT22;61000;48.120;11.548;2022-12-10T15:42:38;0.40;99.90
72865;DHT22;61000;48.120;11.548;2022-12-10T15:45:16;0.50;99.90
72865;DHT22;61000;48.120;11.548;2022-12-10T15:47:47;0.40;99.90
72865;DHT22;61000;48.120;11.548;2022-12-10T15:50:14;0.50;99.90
72865;DHT22;61000;48.120;11.548;2022-12-10T15:52:42;0.40;99.90
72865;DHT22;61000;48.120;11.548;2022-12-10T15:55:11;0.40;99.90
72865;DHT22;61000;48.120;11.548;2022-12-10T15:57:40;0.40;99.90
72865;DHT22;61000;48.120;11.548;2022-12-10T16:00:16;0.30;99.90